Time;durP1;ratioP1;P1;durP2;ratioP2;P2;SDS_P1;SDS_P2;PMS_P1;PMS_P2;Temp;Humidity;BMP_temperature;BMP_pressure;BME280_temperature;BME280_humidity;BME280_pressure;Samples;Min_cycle;Max_cycle;Signal;HPM_P1;HPM_P2
2021/05/21 00:00:41;;;;;;;3.53;1.90;;;13.00;1.00;;;-143.32;78.59;53133.81;6269809;23;20400;-90
2021/05/21 00:03:11;;;;;;;3.93;1.43;;;13.10;1.00;;;-143.32;79.57;53127.75;6270458;23;20753;-89
2021/05/21 00:05:38;;;;;;;1.73;1.23;;;12.90;15.80;;;-143.32;79.70;53139.88;6259500;23;20400;-91
2021/05/21 00:08:05;;;;;;;3.67;1.67;;;12.90;14.00;;;-143.32;80.00;53166.13;6253993;23;20404;-91
2021/05/21 00:10:32;;;;;;;1.87;1.40;;;12.90;32.00;;;-143.32;80.30;53113.63;6251709;23;20438;-92
2021/05/21 00:12:59;;;;;;;4.03;1.40;;;12.90;52.80;;;-143.32;80.56;53149.97;6251856;23;20404;-92
2021/05/21 00:15:26;;;;;;;12.90;1.43;;;12.80;73.60;;;-143.32;80.67;53137.84;6254122;23;20416;-92
2021/05/21 00:17:53;;;;;;;3.33;2.33;;;12.80;80.40;;;-143.32;80.98;53158.03;6253609;23;20478;-91
2021/05/21 00:20:20;;;;;;;5.03;1.60;;;12.80;97.60;;;-143.32;81.30;53168.13;6261126;23;20399;-91
2021/05/21 00:22:46;;;;;;;3.13;1.30;;;12.70;99.90;;;-143.32;82.00;53139.88;6259431;23;20396;-92
2021/05/21 00:25:13;;;;;;;4.07;1.23;;;12.70;99.90;;;-143.32;81.84;53129.75;6250203;23;20415;-92
2021/05/21 00:27:40;;;;;;;2.80;2.00;;;12.70;99.90;;;-143.32;82.14;53123.72;6249943;23;20400;-93
2021/05/21 00:30:09;;;;;;;5.20;1.83;;;12.70;99.90;;;-143.32;81.86;53147.94;6250738;23;20399;-93
2021/05/21 00:32:36;;;;;;;2.33;1.53;;;12.70;99.90;;;-143.32;82.75;53127.75;6251116;23;20454;-93
2021/05/21 00:35:03;;;;;;;7.33;1.87;;;12.60;99.90;;;-143.32;83.10;53127.75;6261104;23;20419;-92
2021/05/21 00:37:30;;;;;;;2.23;1.40;;;12.60;99.90;;;-143.32;82.70;53129.75;6261151;23;20455;-92
2021/05/21 00:39:57;;;;;;;1.97;1.40;;;12.60;99.90;;;-143.32;82.56;53109.56;6260881;23;20430;-92
2021/05/21 00:42:23;;;;;;;3.40;1.67;;;12.60;99.90;;;-143.32;82.54;53145.91;6251194;23;20397;-92
2021/05/21 00:44:55;;;;;;;2.80;1.80;;;12.60;99.90;;;-143.32;83.18;53145.91;6250421;23;20427;-92
2021/05/21 00:47:22;;;;;;;5.87;1.70;;;12.60;99.90;;;-143.32;83.28;53129.75;6250672;23;20404;-92
2021/05/21 00:49:51;;;;;;;3.23;1.60;;;12.60;99.90;;;-143.32;83.44;53149.97;6250317;23;20754;-92
2021/05/21 00:52:18;;;;;;;1.57;1.37;;;12.50;99.90;;;-143.32;83.33;53172.19;6250241;23;20400;-93
2021/05/21 00:54:46;;;;;;;3.20;1.90;;;12.60;99.90;;;-143.32;83.20;53147.94;6249703;23;20395;-92
2021/05/21 00:57:13;;;;;;;2.63;1.63;;;12.60;99.90;;;-143.32;83.26;53127.75;6250489;23;20407;-92
2021/05/21 00:59:40;;;;;;;4.17;1.70;;;12.50;99.90;;;-143.32;83.29;53139.88;6251071;23;20411;-92
2021/05/21 01:02:09;;;;;;;2.77;1.43;;;12.60;99.90;;;-143.32;83.54;53149.97;6249554;23;20415;-92
2021/05/21 01:04:37;;;;;;;2.57;1.87;;;12.60;99.90;;;-143.32;83.69;53133.81;6249731;23;20407;-93
2021/05/21 01:07:04;;;;;;;4.13;1.50;;;12.50;99.90;;;-143.32;83.72;53119.66;6249488;23;20419;-92
2021/05/21 01:09:32;;;;;;;7.43;3.20;;;12.50;99.90;;;-143.32;83.46;53115.63;6249976;23;20436;-92
2021/05/21 01:11:59;;;;;;;2.03;1.60;;;12.50;99.90;;;-143.32;83.86;53139.88;6249982;23;20779;-93
2021/05/21 01:14:26;;;;;;;2.23;1.40;;;12.50;99.90;;;-143.32;83.81;53162.09;6249530;23;20878;-92
2021/05/21 01:16:52;;;;;;;3.33;1.30;;;12.50;99.90;;;-143.32;84.03;53147.94;6249613;23;20388;-92
2021/05/21 01:19:19;;;;;;;18.40;1.90;;;12.50;99.90;;;-143.32;84.38;53143.91;6249458;23;20466;-92
2021/05/21 01:21:47;;;;;;;4.30;1.30;;;12.40;99.90;;;-143.32;84.69;53151.97;6250320;23;20430;-92
2021/05/21 01:24:15;;;;;;;2.97;1.27;;;12.40;99.90;;;-143.32;84.41;53149.97;6249433;23;20395;-93
2021/05/21 01:26:41;;;;;;;4.30;1.70;;;12.40;99.90;;;-143.32;84.76;53166.13;6250450;23;20404;-91
2021/05/21 01:29:08;;;;;;;3.80;1.80;;;12.40;99.90;;;-143.32;84.48;53149.97;6249165;23;20414;-92
2021/05/21 01:31:36;;;;;;;2.43;1.63;;;12.40;99.90;;;-143.32;85.21;53143.91;6249768;23;20496;-93
2021/05/21 01:34:03;;;;;;;5.73;1.80;;;12.40;99.90;;;-143.32;85.52;53139.88;6249983;23;20419;-93
2021/05/21 01:36:30;;;;;;;2.07;1.50;;;12.30;99.90;;;-143.32;85.78;53162.09;6250369;23;20396;-92
2021/05/21 01:39:00;;;;;;;4.37;1.70;;;12.30;99.90;;;-143.32;86.04;53162.09;6249364;23;20448;-92
2021/05/21 01:41:28;;;;;;;4.87;1.50;;;12.20;99.90;;;-143.32;86.17;53172.19;6250367;23;20404;-92
2021/05/21 01:43:56;;;;;;;3.87;1.60;;;12.20;99.90;;;-143.32;86.33;53168.13;6249907;23;20427;-91
2021/05/21 01:46:24;;;;;;;2.73;1.40;;;12.20;99.90;;;-143.32;86.40;53156.03;6249043;23;20408;-92
2021/05/21 01:48:51;;;;;;;2.33;1.40;;;12.20;99.90;;;-143.32;86.47;53143.91;6250632;23;20400;-92
2021/05/21 01:51:17;;;;;;;2.90;1.60;;;12.20;99.90;;;-143.32;86.76;53156.03;6249807;23;20396;-93
2021/05/21 01:53:44;;;;;;;2.53;1.37;;;12.20;99.90;;;-143.32;86.40;53154.00;6249442;23;20703;-92
2021/05/21 01:56:12;;;;;;;2.70;1.70;;;12.20;99.90;;;-143.32;86.74;53170.16;6249449;23;20418;-92
2021/05/21 01:58:39;;;;;;;2.20;1.30;;;12.20;99.90;;;-143.32;86.73;53160.06;6249220;23;20444;-92
2021/05/21 02:01:05;;;;;;;2.77;1.40;;;12.10;99.90;;;-143.32;86.84;53170.16;6249990;23;20408;-91
2021/05/21 02:03:33;;;;;;;1.37;1.27;;;12.10;99.90;;;-143.32;87.22;53180.25;6250188;23;20404;-92
2021/05/21 02:05:59;;;;;;;4.57;1.53;;;12.10;99.90;;;-143.32;87.15;53156.03;6250273;23;20795;-92
2021/05/21 02:08:28;;;;;;;1.30;1.20;;;12.10;99.90;;;-143.32;87.04;53176.22;6248897;23;20388;-93
2021/05/21 02:10:55;;;;;;;2.37;1.30;;;12.10;99.90;;;-143.32;87.02;53147.94;6249903;23;20890;-93
2021/05/21 02:13:23;;;;;;;3.20;1.30;;;12.10;99.90;;;-143.32;87.28;53141.88;6249797;23;20408;-92
2021/05/21 02:15:50;;;;;;;8.47;1.67;;;12.10;99.90;;;-143.32;87.71;53149.97;6249442;23;20883;-93
2021/05/21 02:18:19;;;;;;;2.50;1.57;;;12.00;99.90;;;-143.32;87.78;53168.13;6250106;23;20443;-94
2021/05/21 02:20:46;;;;;;;1.80;1.53;;;12.00;1.00;;;-143.32;87.70;53147.94;6250474;23;20427;-93
2021/05/21 02:23:13;;;;;;;3.00;1.87;;;12.00;1.00;;;-143.32;87.77;53170.16;6250514;23;20863;-91
2021/05/21 02:25:39;;;;;;;3.73;1.60;;;12.00;1.00;;;-143.32;87.94;53141.88;6250765;23;20405;-92
2021/05/21 02:28:06;;;;;;;4.40;1.90;;;12.00;1.00;;;-143.32;88.52;53158.03;6250628;23;20404;-91
2021/05/21 02:30:34;;;;;;;4.57;1.33;;;12.00;1.00;;;-143.32;88.52;53176.22;6250202;23;20693;-90
2021/05/21 02:33:01;;;;;;;3.73;1.40;;;12.00;1.00;;;-143.32;88.49;53131.78;6250055;23;20388;-91
2021/05/21 02:35:27;;;;;;;6.17;1.53;;;12.00;1.00;;;-143.32;88.36;53160.06;6249274;23;20423;-90
2021/05/21 02:37:54;;;;;;;2.70;1.70;;;12.00;1.00;;;-143.32;88.48;53156.03;6250116;23;20436;-91
2021/05/21 02:40:21;;;;;;;3.10;1.67;;;12.00;1.00;;;-143.32;87.96;53156.03;6249756;23;20404;-92
2021/05/21 02:42:52;;;;;;;1.60;1.43;;;12.00;1.00;;;-143.32;87.87;53158.03;6249132;23;20434;-93
2021/05/21 02:45:21;;;;;;;2.90;1.50;;;12.10;99.90;;;-143.32;87.88;53160.06;6249064;23;20712;-91
2021/05/21 02:47:49;;;;;;;5.20;1.30;;;12.10;99.90;;;-143.32;87.92;53141.88;6248282;23;20715;-92
2021/05/21 02:50:16;;;;;;;2.50;1.33;;;12.10;99.90;;;-143.32;87.71;53135.81;6247851;23;20408;-92
2021/05/21 02:52:43;;;;;;;2.87;1.60;;;12.10;99.90;;;-143.32;88.04;53186.31;6249100;23;20388;-93
2021/05/21 02:55:11;;;;;;;3.23;1.87;;;12.10;1.00;;;-143.32;88.18;53164.09;6249659;23;20392;-93
2021/05/21 02:57:40;;;;;;;7.03;1.50;;;12.10;1.00;;;-143.32;88.36;53166.13;6249714;23;20727;-93
2021/05/21 03:00:12;;;;;;;2.50;1.37;;;12.00;1.00;;;-143.32;88.54;53170.16;6250539;23;20403;-93
2021/05/21 03:02:39;;;;;;;1.83;1.40;;;12.00;1.00;;;-143.32;88.83;53151.97;6250013;23;20376;-93
2021/05/21 03:05:12;;;;;;;6.40;1.57;;;12.00;1.00;;;-143.32;88.72;53188.34;6248975;23;20904;-93
2021/05/21 03:07:41;;;;;;;1.80;1.63;;;11.90;1.00;;;-143.32;88.93;53147.94;6250135;23;20428;-93
2021/05/21 03:10:11;;;;;;;5.63;1.60;;;11.90;1.00;;;-143.32;89.15;53174.19;6249669;23;20529;-92
2021/05/21 03:12:43;;;;;;;5.00;2.33;;;11.90;1.00;;;-143.32;89.15;53174.19;6250030;23;20388;-93
2021/05/21 03:15:12;;;;;;;3.37;1.40;;;11.90;1.00;;;-143.32;89.23;53166.13;6251184;23;20380;-92
2021/05/21 03:17:42;;;;;;;8.63;1.63;;;11.90;1.00;;;-143.32;89.50;53158.03;6248933;23;20404;-92
2021/05/21 03:20:13;;;;;;;5.13;1.90;;;11.90;1.00;;;-143.32;89.81;53160.06;6250101;23;20388;-93
2021/05/21 03:22:40;;;;;;;1.73;1.40;;;11.80;1.00;;;-143.32;89.76;53154.00;6250966;23;20403;-93
2021/05/21 03:25:10;;;;;;;4.10;1.60;;;11.70;1.00;;;-143.32;89.62;53166.13;6249592;23;20403;-94
2021/05/21 03:27:40;;;;;;;1.73;1.60;;;11.80;1.00;;;-143.32;89.75;53145.91;6250338;23;20855;-93
2021/05/21 03:30:11;;;;;;;7.40;1.80;;;11.80;1.00;;;-143.32;89.81;53141.88;6250505;23;20392;-93
2021/05/21 03:32:38;;;;;;;3.37;1.40;;;11.80;1.00;;;-143.32;89.60;53202.47;6250147;23;20445;-92
2021/05/21 03:35:09;;;;;;;3.73;1.60;;;11.80;1.00;;;-143.32;89.43;53131.78;6250753;23;20423;-93
2021/05/21 03:37:37;;;;;;;2.57;1.43;;;11.80;1.00;;;-143.32;89.65;53141.88;6249624;23;20463;-91
2021/05/21 03:40:05;;;;;;;5.60;1.60;;;11.90;1.00;;;-143.32;89.86;53125.72;6249655;23;20700;-92
2021/05/21 03:42:32;;;;;;;7.90;1.80;;;11.80;1.00;;;-143.32;90.10;53166.13;6250428;23;20393;-92
2021/05/21 03:44:58;;;;;;;2.10;1.33;;;11.80;1.00;;;-143.32;90.27;53178.25;6250152;23;20883;-93
2021/05/21 03:47:26;;;;;;;6.90;1.60;;;11.80;1.00;;;-143.32;89.99;53147.94;6252347;23;20417;-92
2021/05/21 03:49:53;;;;;;;3.00;1.50;;;11.80;1.00;;;-143.32;90.06;53176.22;6250243;23;20391;-92
2021/05/21 03:52:19;;;;;;;2.77;1.53;;;11.80;1.00;;;-143.32;90.18;53202.47;6251711;23;20414;-93
2021/05/21 03:54:47;;;;;;;3.13;1.93;;;11.80;1.00;;;-143.32;89.98;53172.19;6250818;23;20415;-92
2021/05/21 03:57:14;;;;;;;3.93;1.70;;;11.80;1.00;;;-143.32;89.80;53139.88;6250669;23;20415;-93
2021/05/21 03:59:41;;;;;;;5.23;1.60;;;11.90;1.00;;;-143.32;89.23;53135.81;6251821;23;20514;-93
2021/05/21 04:02:07;;;;;;;4.53;1.93;;;12.00;1.00;;;-143.32;88.85;53111.59;6252215;23;20411;-93
2021/05/21 04:04:34;;;;;;;7.70;2.00;;;12.10;1.00;;;-143.32;88.49;53160.06;6251483;23;20685;-91
2021/05/21 04:07:01;;;;;;;7.47;2.13;;;12.20;99.90;;;-143.32;88.25;53107.56;6251847;23;20399;-92
2021/05/21 04:09:30;;;;;;;4.90;1.60;;;12.30;99.90;;;-143.32;87.84;53115.63;6251279;23;20431;-93
2021/05/21 04:11:58;;;;;;;2.53;1.33;;;12.30;99.90;;;-143.32;87.90;53135.81;6251794;23;20696;-92
2021/05/21 04:14:25;;;;;;;3.90;1.70;;;12.40;99.90;;;-143.32;87.59;53105.53;6250691;23;20427;-93
2021/05/21 04:16:52;;;;;;;2.73;1.33;;;12.40;99.90;;;-143.32;87.64;53135.81;6251019;23;20746;-92
2021/05/21 04:19:20;;;;;;;3.73;1.87;;;12.50;99.90;;;-143.32;87.00;53101.50;6252589;23;20435;-91
2021/05/21 04:21:47;;;;;;;6.10;1.80;;;12.60;99.90;;;-143.32;86.87;53119.66;6251981;23;20407;-91
2021/05/21 04:24:14;;;;;;;4.00;1.73;;;12.60;99.90;;;-143.32;86.61;53093.41;6250296;23;20412;-91
2021/05/21 04:26:44;;;;;;;4.20;1.50;;;12.60;99.90;;;-143.32;86.65;53119.66;6251540;23;20411;-93
2021/05/21 04:29:17;;;;;;;5.67;1.67;;;12.70;99.90;;;-143.32;86.33;53095.44;6249495;23;20419;-92
2021/05/21 04:35:30;;;;;;;3.53;1.83;;;12.80;99.90;;;-143.32;85.97;53085.34;6242952;23;20396;-93
2021/05/21 04:38:00;;;;;;;7.63;1.90;;;12.80;99.90;;;-143.32;85.65;53129.75;6248384;23;20443;-91
2021/05/21 04:44:29;;;;;;;3.93;1.53;;;12.90;99.90;;;-143.32;85.78;53069.19;6248208;23;20363;-92
2021/05/21 04:47:01;;;;;;;6.00;2.00;;;12.90;99.90;;;-143.32;85.98;53085.34;6248684;23;20727;-91
2021/05/21 04:49:35;;;;;;;9.07;1.80;;;12.90;99.90;;;-143.32;85.80;53105.53;6247764;23;20392;-93
2021/05/21 04:52:20;;;;;;;6.20;1.87;;;12.90;99.90;;;-143.32;85.29;53085.34;6248217;23;20379;-93
2021/05/21 04:55:13;;;;;;;4.07;1.70;;;13.00;99.90;;;-143.32;85.24;53061.09;6248733;23;20704;-90
2021/05/21 04:57:51;;;;;;;7.30;2.20;;;13.10;99.90;;;-143.32;84.84;53093.41;6247671;23;20408;-90
2021/05/21 05:15:32;;;;;;;8.03;2.47;;;13.00;99.90;;;-143.32;85.78;53065.13;6250637;23;20367;-92
2021/05/21 05:21:57;;;;;;;5.77;2.40;;;13.00;99.90;;;-143.32;85.49;53083.31;6248542;23;20360;-92
2021/05/21 05:24:50;;;;;;;4.53;1.93;;;13.10;99.90;;;-143.32;85.42;53044.94;6249066;23;20427;-91
2021/05/21 05:28:08;;;;;;;5.60;2.00;;;13.10;99.90;;;-143.32;85.57;53067.16;6237874;23;20408;-92
2021/05/21 05:35:26;;;;;;;2.20;1.50;;;13.10;99.90;;;-143.32;85.77;53071.19;6155185;23;20394;-92
2021/05/21 05:44:55;;;;;;;3.23;1.63;;;13.20;99.90;;;-143.32;84.75;53046.97;6154870;23;20442;-90
2021/05/21 05:47:37;;;;;;;4.00;1.77;;;13.20;99.90;;;-143.32;84.70;53034.84;6154530;23;20407;-88
2021/05/21 05:50:14;;;;;;;5.37;1.70;;;13.30;99.90;;;-143.32;84.74;53087.34;6162396;23;20372;-91
2021/05/21 06:41:21;;;;;;;6.80;2.30;;;14.70;1.00;;;-143.32;76.42;52832.91;5981041;24;20405;-92
2021/05/21 06:43:48;;;;;;;4.40;1.97;;;15.50;1.00;;;-143.32;75.54;52867.22;6009299;23;20405;-90
2021/05/21 06:46:21;;;;;;;11.53;2.67;;;15.60;1.00;;;-143.32;76.93;52897.53;6246717;23;20396;-90
2021/05/21 06:48:50;;;;;;;6.80;2.30;;;15.40;1.00;;;-143.32;76.25;52859.16;6245800;23;20470;-92
2021/05/21 06:51:18;;;;;;;8.03;2.30;;;15.60;1.00;;;-143.32;76.51;52851.09;6246464;23;20408;-92
2021/05/21 06:53:45;;;;;;;6.80;1.80;;;15.60;1.00;;;-143.32;75.54;52824.81;6246247;23;20802;-91
2021/05/21 06:56:14;;;;;;;6.50;2.40;;;15.70;1.00;;;-143.32;74.99;52867.22;6246283;23;20392;-93
2021/05/21 06:58:43;;;;;;;5.57;2.23;;;15.60;1.00;;;-143.32;76.00;52879.34;6246562;23;20781;-88
2021/05/21 07:01:09;;;;;;;11.73;2.37;;;15.50;1.00;;;-143.32;76.13;52891.47;6246277;23;20416;-88
2021/05/21 07:03:43;;;;;;;11.50;2.40;;;15.40;1.00;;;-143.32;76.39;52899.53;6246330;23;20410;-89
2021/05/21 07:06:10;;;;;;;7.87;2.37;;;15.20;1.00;;;-143.32;77.31;52946.00;6246606;23;20407;-88
2021/05/21 07:08:40;;;;;;;9.57;2.53;;;14.90;1.00;;;-143.32;79.11;53000.50;6245647;23;20396;-89
2021/05/21 07:11:13;;;;;;;8.03;2.23;;;14.50;1.00;;;-143.32;80.24;52992.44;6247893;23;20408;-88
2021/05/21 07:13:41;;;;;;;13.17;2.20;;;14.30;1.00;;;-143.32;78.98;52984.38;6248800;23;20486;-87
2021/05/21 07:16:42;;;;;;;4.30;2.00;;;14.40;1.00;;;-143.32;76.31;52889.44;6250324;23;20422;-89
2021/05/21 07:19:14;;;;;;;7.43;2.40;;;15.00;1.00;;;-143.32;72.32;52843.00;6248124;23;20442;-87
2021/05/21 07:21:46;;;;;;;14.03;2.53;;;15.70;1.00;;;-143.32;70.54;52820.78;6248269;23;20388;-88
2021/05/21 07:24:33;;;;;;;8.60;2.60;;;16.10;99.90;;;-143.32;69.05;52843.00;6248256;23;20550;-88
2021/05/21 07:27:18;;;;;;;7.00;2.53;;;16.40;99.90;;;-143.32;66.80;52796.56;6248652;23;20486;-89
2021/05/21 07:30:31;;;;;;;6.73;2.13;;;16.70;99.90;;;-143.32;64.34;52796.56;6248284;23;20384;-89
2021/05/21 07:33:15;;;;;;;14.40;6.10;;;17.20;99.90;;;-143.32;64.39;52820.78;6247802;23;20547;-88
2021/05/21 07:40:09;;;;;;;11.80;3.80;;;17.10;99.90;;;-143.32;61.95;52786.47;6148033;23;20485;-88
2021/05/21 08:24:35;;;;;;;11.33;2.93;;;17.20;99.90;;;-143.32;57.44;52875.31;5937039;23;21063;-88
2021/05/21 08:27:42;;;;;;;11.67;2.53;;;17.60;99.90;;;-143.32;55.92;52958.09;6008046;23;20782;-90
2021/05/21 09:21:45;;;;;;;7.70;2.43;;;18.50;99.90;;;-143.32;41.98;53099.47;5825571;24;20433;-87
2021/05/21 09:32:45;;;;;;;17.90;2.90;;;19.30;99.90;;;-143.32;39.68;53174.19;5870173;24;20420;-87
2021/05/21 09:44:10;;;;;;;16.87;3.20;;;19.00;99.90;;;-143.32;35.87;53244.88;5890230;24;20553;-86
2021/05/21 09:50:11;;;;;;;16.63;3.30;;;18.80;99.90;;;-143.32;39.49;53376.16;5962473;24;20413;-86
2021/05/21 09:55:57;;;;;;;16.60;3.07;;;18.20;99.90;;;-143.32;38.97;53396.34;6249319;22;20772;-91
2021/05/21 09:58:27;;;;;;;11.97;2.80;;;18.20;99.90;;;-143.32;38.54;53408.47;6246504;23;20457;-90
2021/05/21 10:01:13;;;;;;;13.13;2.90;;;18.20;99.90;;;-143.32;37.79;53420.59;6247089;23;20716;-91
2021/05/21 10:11:42;;;;;;;12.73;2.90;;;17.90;99.90;;;-143.32;39.04;53513.50;6269931;22;20950;-91
2021/05/21 10:16:45;;;;;;;14.20;3.40;;;17.60;99.90;;;-143.32;38.84;53519.56;6288438;22;20757;-91
2021/05/21 10:24:26;;;;;;;13.10;3.27;;;16.70;99.90;;;-143.32;43.58;53582.19;6263927;22;20725;-92
2021/05/21 10:26:56;;;;;;;9.87;2.93;;;16.50;99.90;;;-143.32;44.49;53570.06;6246853;23;20917;-92
2021/05/21 10:29:26;;;;;;;13.27;2.57;;;16.60;99.90;;;-143.32;43.56;53549.88;6246874;23;20407;-91
2021/05/21 10:31:53;;;;;;;14.47;3.03;;;16.80;99.90;;;-143.32;42.94;53501.38;6246878;23;20412;-90
2021/05/21 10:34:27;;;;;;;11.40;2.70;;;17.10;99.90;;;-143.32;39.67;53568.03;6246841;23;20481;-90
2021/05/21 10:36:53;;;;;;;14.10;3.23;;;17.20;99.90;;;-143.32;39.07;53529.66;6246797;23;20389;-91
2021/05/21 10:39:23;;;;;;;9.60;2.97;;;17.50;99.90;;;-143.32;39.72;53549.88;6246189;23;20440;-90
2021/05/21 10:41:51;;;;;;;8.53;2.90;;;17.60;99.90;;;-143.32;39.19;53537.75;6246414;23;20421;-89
2021/05/21 10:44:21;;;;;;;18.90;3.00;;;17.70;99.90;;;-143.32;37.84;53539.75;6247305;23;20415;-92
2021/05/21 10:46:49;;;;;;;11.10;3.10;;;17.80;99.90;;;-143.32;37.79;53547.84;6248971;23;20415;-91
2021/05/21 10:50:18;;;;;;;9.83;3.27;;;17.80;99.90;;;-143.32;37.06;53667.00;6248207;23;20423;-91
2021/05/21 10:52:54;;;;;;;12.63;3.00;;;17.60;99.90;;;-143.32;38.00;53667.00;6249043;23;20414;-91
2021/05/21 10:55:50;;;;;;;14.50;2.77;;;17.10;99.90;;;-143.32;38.53;53699.34;6248419;23;20364;-90
2021/05/21 10:58:20;;;;;;;16.10;3.23;;;16.90;99.90;;;-143.32;39.56;53667.00;6248191;23;20408;-89
2021/05/21 11:01:16;;;;;;;20.03;3.33;;;16.90;99.90;;;-143.32;38.83;53693.28;6249021;23;20909;-90
2021/05/21 11:04:07;;;;;;;14.20;2.63;;;16.80;99.90;;;-143.32;38.98;53677.13;6248344;23;20912;-90
2021/05/21 11:06:55;;;;;;;8.80;2.53;;;16.90;99.90;;;-143.32;37.46;53628.63;6249005;23;20388;-92
2021/05/21 11:09:24;;;;;;;10.47;2.07;;;17.30;99.90;;;-143.32;36.70;53612.47;6249857;23;20426;-91
2021/05/21 11:12:01;;;;;;;11.67;2.40;;;17.80;99.90;;;-143.32;36.47;53586.22;6248234;23;20392;-91
2021/05/21 11:22:38;;;;;;;15.20;3.20;;;18.00;99.90;;;-143.32;35.43;53648.84;6263714;22;20459;-93
2021/05/21 11:25:08;;;;;;;18.70;3.53;;;18.00;99.90;;;-143.32;36.29;53671.06;6265455;23;20461;-93
2021/05/21 11:31:23;;;;;;;15.13;2.73;;;17.80;99.90;;;-143.32;37.13;53705.38;6258699;22;20466;-92
2021/05/21 13:42:45;;;;;;;;;;;;;;;;;;;;;
2021/05/21 15:02:17;;;;;;;10.17;2.80;;;18.20;99.90;;;-143.32;31.56;54222.53;6282531;22;20429;-91
2021/05/21 15:16:18;;;;;;;9.60;2.20;;;18.00;99.90;;;-143.32;30.49;54303.34;6256376;22;20440;-90
2021/05/21 15:51:38;;;;;;;10.70;2.30;;;17.90;99.90;;;-143.32;31.29;54355.88;6270411;22;20451;-92
2021/05/21 16:12:20;;;;;;;12.70;2.20;;;18.40;99.90;;;-143.32;32.22;54335.66;6251352;23;20475;-90
2021/05/21 16:14:58;;;;;;;10.10;2.87;;;18.20;99.90;;;-143.32;32.00;54329.59;6099125;23;20421;-90
2021/05/21 16:20:17;;;;;;;6.70;2.50;;;18.10;99.90;;;-143.32;31.39;54406.38;6243848;23;20447;-91
2021/05/21 16:22:50;;;;;;;4.67;1.60;;;17.90;99.90;;;-143.32;31.79;54374.03;6248405;23;20882;-90
2021/05/21 16:57:08;;;;;;;8.27;2.10;;;16.80;99.90;;;-143.32;39.31;54321.53;6107764;23;20405;-94
2021/05/21 16:59:35;;;;;;;5.43;1.60;;;16.40;99.90;;;-143.32;39.45;54376.06;6048049;23;20922;-92
2021/05/21 17:02:04;;;;;;;9.23;1.80;;;16.50;99.90;;;-143.32;39.20;54372.03;6223626;22;20422;-94
2021/05/21 17:04:32;;;;;;;7.23;2.17;;;16.40;99.90;;;-143.32;38.35;54418.50;6278536;22;20417;-92
2021/05/21 17:10:10;;;;;;;7.67;1.83;;;16.30;99.90;;;-143.32;39.05;54416.47;6277634;22;20434;-92
2021/05/21 18:08:01;;;;;;;5.37;2.30;;;15.60;99.90;;;-143.32;52.22;54285.16;5904017;24;20387;-94
2021/05/21 18:51:25;;;;;;;12.00;4.10;;;13.20;1.00;;;-143.32;97.80;53751.84;6207600;23;20875;-92
2021/05/21 19:03:07;;;;;;;8.20;2.20;;;12.50;1.00;;;-143.32;98.82;53725.59;6246097;23;20391;-89
2021/05/21 19:05:38;;;;;;;6.87;2.33;;;12.40;99.90;;;-143.32;98.50;53709.44;6248833;23;20886;-90
2021/05/21 19:08:14;;;;;;;14.80;3.00;;;12.30;99.90;;;-143.32;98.49;53719.53;6248428;23;20969;-95
2021/05/21 19:11:02;;;;;;;8.83;2.70;;;12.20;1.00;;;-143.32;99.81;53660.94;6249689;23;20380;-92
2021/05/21 19:13:43;;;;;;;9.37;3.33;;;12.20;99.90;;;-143.32;99.26;53681.16;6248586;23;20435;-93
2021/05/21 19:16:53;;;;;;;12.40;3.07;;;12.20;99.90;;;-143.32;100.00;53632.69;6249144;23;20486;-89
2021/05/21 19:25:36;;;;;;;14.87;3.47;;;11.90;24.80;;;-143.32;99.78;53679.13;6229479;23;20391;-90
2021/05/21 19:28:31;;;;;;;19.67;4.13;;;11.90;99.90;;;-143.32;100.00;53640.75;6249140;23;20469;-92
2021/05/21 19:31:24;;;;;;;14.80;4.00;;;11.80;99.90;;;-143.32;100.00;53610.47;6256875;23;20692;-90
2021/05/21 19:37:36;;;;;;;16.27;3.70;;;11.80;99.90;;;-143.32;99.78;53671.06;6245103;23;20911;-92
2021/05/21 19:40:21;;;;;;;11.33;3.27;;;11.80;99.90;;;-143.32;97.66;53687.22;6248413;23;20443;-92
2021/05/21 20:13:54;;;;;;;6.00;2.80;;;12.00;99.90;;;-143.32;87.68;53907.38;6255240;22;20454;-92
2021/05/21 20:16:24;;;;;;;8.20;2.20;;;12.00;99.90;;;-143.32;86.64;53947.78;6247135;23;20485;-89
2021/05/21 20:18:53;;;;;;;11.20;2.13;;;12.10;99.90;;;-143.32;86.09;53911.44;6248188;23;20380;-90
2021/05/21 20:25:12;;;;;;;5.60;2.03;;;12.20;86.90;;;-143.32;85.34;53953.84;6247810;23;20422;-89
2021/05/21 20:27:48;;;;;;;5.60;2.13;;;12.30;38.00;;;-143.32;85.24;53957.88;6248214;23;20431;-90
2021/05/21 20:30:26;;;;;;;9.13;1.90;;;12.30;20.60;;;-143.32;85.08;53949.81;6248317;23;20390;-91
2021/05/21 20:32:55;;;;;;;4.53;1.90;;;12.30;1.00;;;-143.32;86.29;53947.78;6247951;23;20372;-93
2021/05/21 20:41:21;;;;;;;8.80;2.03;;;12.30;28.40;;;-143.32;86.29;53945.78;6247361;23;20511;-89
2021/05/21 20:44:07;;;;;;;7.03;2.90;;;12.20;99.90;;;-143.32;86.14;53935.66;6247612;23;20450;-91
2021/05/21 21:00:28;;;;;;;9.10;2.50;;;11.80;99.90;;;-143.32;89.70;53994.25;6247556;23;20427;-90
2021/05/21 21:06:10;;;;;;;4.87;2.40;;;11.60;1.00;;;-143.32;90.58;53953.84;6247126;23;20467;-90
2021/05/21 21:08:41;;;;;;;3.47;1.90;;;11.50;1.00;;;-143.32;91.13;53982.13;6247012;23;20395;-91
2021/05/21 21:14:00;;;;;;;8.23;2.53;;;11.40;1.00;;;-143.32;92.08;53955.88;6246998;23;20537;-90
2021/05/21 21:16:34;;;;;;;4.03;2.00;;;11.30;1.00;;;-143.32;92.70;53955.88;6247414;23;20399;-92
2021/05/21 21:19:06;;;;;;;10.17;2.57;;;11.20;36.60;;;-143.32;92.55;53951.81;6247848;23;20393;-90
2021/05/21 21:21:53;;;;;;;7.73;1.93;;;11.30;67.10;;;-143.32;92.95;53957.88;6246876;23;20441;-90
2021/05/21 21:27:27;;;;;;;8.63;2.43;;;11.30;99.90;;;-143.32;94.01;53939.72;6247146;23;20708;-92
2021/05/21 21:30:11;;;;;;;7.50;2.03;;;11.20;99.90;;;-143.32;94.47;53919.50;6247947;23;20839;-92
2021/05/21 21:52:38;;;;;;;5.60;2.13;;;11.00;1.00;;;-143.32;95.80;53943.75;6209790;23;20430;-90
2021/05/21 21:55:20;;;;;;;12.00;2.33;;;11.00;1.00;;;-143.32;95.54;53913.44;6246998;23;20392;-92
2021/05/21 21:58:02;;;;;;;4.20;2.10;;;11.00;1.00;;;-143.32;95.65;53943.75;6247735;23;20411;-89
2021/05/21 22:00:43;;;;;;;7.83;1.90;;;11.00;1.00;;;-143.32;95.52;53935.66;6247096;23;20439;-90
2021/05/21 22:03:19;;;;;;;11.20;2.23;;;10.90;1.00;;;-143.32;95.62;53929.59;6247158;23;20399;-91
2021/05/21 22:12:38;;;;;;;8.70;2.53;;;10.90;1.00;;;-143.32;95.49;53957.88;6246649;23;20451;-90
2021/05/21 22:18:07;;;;;;;5.87;2.23;;;10.90;1.00;;;-143.32;95.63;53941.72;6245040;23;20403;-91
2021/05/21 22:20:39;;;;;;;7.07;2.30;;;10.80;1.00;;;-143.32;95.73;53935.66;6247448;23;20439;-88
2021/05/21 22:23:17;;;;;;;5.80;2.00;;;10.80;1.00;;;-143.32;95.93;53905.38;6245837;23;20416;-91
2021/05/21 22:25:47;;;;;;;8.43;2.17;;;10.80;1.00;;;-143.32;96.06;53941.72;6246860;23;20423;-92
2021/05/21 22:28:15;;;;;;;8.47;2.17;;;10.70;1.00;;;-143.32;96.12;53949.81;6246280;23;20381;-90
2021/05/21 22:30:45;;;;;;;8.33;2.50;;;10.70;1.00;;;-143.32;96.64;53941.72;6245954;23;20416;-90
2021/05/21 22:33:12;;;;;;;9.70;2.60;;;10.70;1.00;;;-143.32;96.72;53984.16;6246316;23;20396;-90
2021/05/21 22:35:38;;;;;;;7.83;2.87;;;10.60;1.00;;;-143.32;96.59;53949.81;6246356;23;20412;-92
2021/05/21 22:38:06;;;;;;;8.43;2.30;;;10.60;1.00;;;-143.32;96.71;53951.81;6247493;23;20461;-91
2021/05/21 22:40:33;;;;;;;8.13;2.73;;;10.60;1.00;;;-143.32;97.11;53921.53;6246363;23;20443;-91
2021/05/21 22:43:01;;;;;;;9.47;2.63;;;10.60;96.80;;;-143.32;96.98;53951.81;6247083;23;20419;-92
2021/05/21 22:45:28;;;;;;;7.23;3.00;;;10.50;31.80;;;-143.32;97.52;53978.09;6246658;23;20403;-92
2021/05/21 22:47:57;;;;;;;5.90;2.70;;;10.50;99.90;;;-143.32;97.21;53945.78;6247033;23;20417;-90
2021/05/21 22:50:24;;;;;;;6.40;2.20;;;10.50;99.90;;;-143.32;96.92;53909.41;6246031;23;20454;-91
2021/05/21 22:52:54;;;;;;;3.73;2.40;;;10.50;59.70;;;-143.32;96.89;53949.81;6247009;23;20704;-90
2021/05/21 22:55:20;;;;;;;14.00;3.47;;;10.50;35.70;;;-143.32;96.79;53933.66;6246178;23;20526;-90
2021/05/21 22:57:47;;;;;;;7.53;2.60;;;10.50;2.10;;;-143.32;96.65;53951.81;6246660;23;20398;-89